Terminal Aerodrome Forecast
Issued by NWS

Home | Current Version | Previous Version | Text Only | Print | Product List | Glossary On
Versions: 1 2 3 4 5 6 7 8 9 10 11 12 13
000
FTUS43 KLSX 252320
TAFUIN
TAF
KUIN 252320Z 2600/2624 30011KT P6SM VCSH OVC080
     FM260500 30008KT P6SM BKN100
     FM260800 29008KT P6SM SKC
     FM261500 30012G19KT P6SM SKC=

USA.gov is the U.S. government's official web portal to all federal, state and local government web resources and services.